sensor_id;sensor_type;location;lat;lon;timestamp;pressure;altitude;pressure_sealevel;temperature;humidity
61010;BME280;46897;55.340;86.082;2022-12-18T13:58:43;102009.41;;;-16.56;71.74
61010;BME280;46897;55.340;86.082;2022-12-18T14:01:22;101997.63;;;-16.55;72.18
61010;BME280;46897;55.340;86.082;2022-12-18T14:04:10;101998.16;;;-16.40;73.03
61010;BME280;46897;55.340;86.082;2022-12-18T14:06:40;102007.66;;;-16.29;73.65
61010;BME280;46897;55.340;86.082;2022-12-18T14:09:14;102005.50;;;-16.16;73.92
61010;BME280;46897;55.340;86.082;2022-12-18T14:11:48;102004.06;;;-16.04;74.42
61010;BME280;46897;55.340;86.082;2022-12-18T14:14:19;102004.13;;;-15.93;74.89
61010;BME280;46897;55.340;86.082;2022-12-18T14:16:54;102009.13;;;-15.76;75.07
61010;BME280;46897;55.340;86.082;2022-12-18T14:19:23;102006.06;;;-15.72;75.19
61010;BME280;46897;55.340;86.082;2022-12-18T14:21:53;102015.16;;;-15.55;75.30
61010;BME280;46897;55.340;86.082;2022-12-18T14:24:22;102014.31;;;-15.45;75.46
61010;BME280;46897;55.340;86.082;2022-12-18T14:26:51;102010.06;;;-15.36;75.61
61010;BME280;46897;55.340;86.082;2022-12-18T14:29:24;102012.91;;;-15.33;75.67
61010;BME280;46897;55.340;86.082;2022-12-18T14:32:12;101975.09;;;-15.49;75.42
61010;BME280;46897;55.340;86.082;2022-12-18T14:34:46;102013.06;;;-15.21;75.53
61010;BME280;46897;55.340;86.082;2022-12-18T14:37:17;102016.28;;;-15.13;75.94
61010;BME280;46897;55.340;86.082;2022-12-18T14:39:56;102020.13;;;-15.08;75.49
61010;BME280;46897;55.340;86.082;2022-12-18T14:42:28;102016.84;;;-14.97;75.66
61010;BME280;46897;55.340;86.082;2022-12-18T14:45:36;102029.34;;;-14.90;75.94
61010;BME280;46897;55.340;86.082;2022-12-18T14:48:12;101994.97;;;-15.05;75.62
61010;BME280;46897;55.340;86.082;2022-12-18T14:50:57;102024.44;;;-14.78;75.57
61010;BME280;46897;55.340;86.082;2022-12-18T14:53:33;102036.78;;;-14.72;75.85
61010;BME280;46897;55.340;86.082;2022-12-18T14:56:03;102042.38;;;-14.66;75.55
61010;BME280;46897;55.340;86.082;2022-12-18T14:58:45;101995.28;;;-14.92;75.43
61010;BME280;46897;55.340;86.082;2022-12-18T15:01:24;102010.97;;;-14.77;75.55
61010;BME280;46897;55.340;86.082;2022-12-18T15:03:55;102006.91;;;-14.75;75.59
61010;BME280;46897;55.340;86.082;2022-12-18T15:06:31;102034.16;;;-14.53;75.76
61010;BME280;46897;55.340;86.082;2022-12-18T15:09:02;102017.75;;;-14.57;75.62
61010;BME280;46897;55.340;86.082;2022-12-18T15:11:35;102015.59;;;-14.62;75.40
61010;BME280;46897;55.340;86.082;2022-12-18T15:14:40;102039.13;;;-14.45;75.73
61010;BME280;46897;55.340;86.082;2022-12-18T15:17:18;101966.31;;;-14.83;75.28
61010;BME280;46897;55.340;86.082;2022-12-18T15:19:50;102019.25;;;-14.49;75.70
61010;BME280;46897;55.340;86.082;2022-12-18T15:22:24;102034.69;;;-14.37;75.37
61010;BME280;46897;55.340;86.082;2022-12-18T15:24:54;102038.13;;;-14.36;75.71
61010;BME280;46897;55.340;86.082;2022-12-18T15:27:30;102044.09;;;-14.36;75.51
61010;BME280;46897;55.340;86.082;2022-12-18T15:30:16;102018.53;;;-14.48;75.26
61010;BME280;46897;55.340;86.082;2022-12-18T15:32:49;102052.13;;;-14.31;75.34
61010;BME280;46897;55.340;86.082;2022-12-18T15:35:20;102045.25;;;-14.32;75.42
61010;BME280;46897;55.340;86.082;2022-12-18T15:37:51;102032.03;;;-14.38;75.51
61010;BME280;46897;55.340;86.082;2022-12-18T15:40:22;102038.50;;;-14.32;75.55
61010;BME280;46897;55.340;86.082;2022-12-18T15:42:54;102052.38;;;-14.28;75.15
61010;BME280;46897;55.340;86.082;2022-12-18T15:45:41;102048.59;;;-14.23;75.62
61010;BME280;46897;55.340;86.082;2022-12-18T15:48:19;102030.88;;;-14.32;75.20
61010;BME280;46897;55.340;86.082;2022-12-18T15:50:50;102031.66;;;-14.22;75.37
61010;BME280;46897;55.340;86.082;2022-12-18T15:53:20;102040.81;;;-14.14;75.68
61010;BME280;46897;55.340;86.082;2022-12-18T15:55:49;102042.63;;;-14.13;75.79
61010;BME280;46897;55.340;86.082;2022-12-18T15:58:36;102041.97;;;-14.11;75.29
61010;BME280;46897;55.340;86.082;2022-12-18T16:01:07;102046.06;;;-14.02;75.25
61010;BME280;46897;55.340;86.082;2022-12-18T16:03:39;102047.22;;;-13.99;75.40
61010;BME280;46897;55.340;86.082;2022-12-18T16:06:09;102055.25;;;-13.94;75.73
61010;BME280;46897;55.340;86.082;2022-12-18T16:08:39;102049.38;;;-13.93;75.28
61010;BME280;46897;55.340;86.082;2022-12-18T16:11:15;102038.19;;;-13.95;75.70
61010;BME280;46897;55.340;86.082;2022-12-18T16:14:16;102049.50;;;-13.92;75.21
61010;BME280;46897;55.340;86.082;2022-12-18T16:16:48;102017.91;;;-14.04;75.58
61010;BME280;46897;55.340;86.082;2022-12-18T16:19:20;102052.44;;;-13.87;75.49
61010;BME280;46897;55.340;86.082;2022-12-18T16:21:51;102022.41;;;-14.01;75.68
61010;BME280;46897;55.340;86.082;2022-12-18T16:24:22;102013.97;;;-14.00;75.65
61010;BME280;46897;55.340;86.082;2022-12-18T16:26:52;102047.09;;;-13.80;75.61
61010;BME280;46897;55.340;86.082;2022-12-18T16:29:23;102043.81;;;-13.79;75.76
61010;BME280;46897;55.340;86.082;2022-12-18T16:31:55;102042.13;;;-13.78;75.83
61010;BME280;46897;55.340;86.082;2022-12-18T16:34:27;102035.09;;;-13.81;75.75
61010;BME280;46897;55.340;86.082;2022-12-18T16:37:03;102035.75;;;-13.83;75.58
61010;BME280;46897;55.340;86.082;2022-12-18T16:39:33;102043.41;;;-13.83;76.08
61010;BME280;46897;55.340;86.082;2022-12-18T16:42:03;102039.44;;;-13.80;75.54
61010;BME280;46897;55.340;86.082;2022-12-18T16:44:33;102035.38;;;-13.88;75.33
61010;BME280;46897;55.340;86.082;2022-12-18T16:47:04;102025.44;;;-13.85;75.73
61010;BME280;46897;55.340;86.082;2022-12-18T16:49:37;101986.00;;;-14.11;75.60
61010;BME280;46897;55.340;86.082;2022-12-18T16:52:08;102049.91;;;-13.77;75.49
61010;BME280;46897;55.340;86.082;2022-12-18T16:54:37;102038.31;;;-13.83;75.54
61010;BME280;46897;55.340;86.082;2022-12-18T16:57:07;102036.78;;;-13.81;75.73
61010;BME280;46897;55.340;86.082;2022-12-18T16:59:37;102048.38;;;-13.75;75.57
61010;BME280;46897;55.340;86.082;2022-12-18T17:02:12;102031.53;;;-13.83;75.48
61010;BME280;46897;55.340;86.082;2022-12-18T17:04:47;102019.59;;;-13.94;75.32
61010;BME280;46897;55.340;86.082;2022-12-18T17:07:16;102043.53;;;-13.92;75.18
61010;BME280;46897;55.340;86.082;2022-12-18T17:09:46;102056.63;;;-13.88;75.14
61010;BME280;46897;55.340;86.082;2022-12-18T17:12:16;102040.09;;;-14.03;75.23
61010;BME280;46897;55.340;86.082;2022-12-18T17:14:46;102064.50;;;-13.95;75.19
61010;BME280;46897;55.340;86.082;2022-12-18T17:17:15;102067.84;;;-13.96;75.15
61010;BME280;46897;55.340;86.082;2022-12-18T17:19:50;102067.06;;;-13.95;75.05
61010;BME280;46897;55.340;86.082;2022-12-18T17:22:19;102062.47;;;-13.99;75.39
61010;BME280;46897;55.340;86.082;2022-12-18T17:24:50;102068.09;;;-13.93;75.14
61010;BME280;46897;55.340;86.082;2022-12-18T17:27:19;102073.31;;;-13.91;75.03
61010;BME280;46897;55.340;86.082;2022-12-18T17:29:48;102051.28;;;-14.01;75.01
61010;BME280;46897;55.340;86.082;2022-12-18T17:32:18;102064.00;;;-13.91;74.97
61010;BME280;46897;55.340;86.082;2022-12-18T17:34:49;102059.19;;;-13.98;75.09
61010;BME280;46897;55.340;86.082;2022-12-18T17:37:18;102038.69;;;-14.10;74.98
61010;BME280;46897;55.340;86.082;2022-12-18T17:39:47;102062.75;;;-13.96;74.86
61010;BME280;46897;55.340;86.082;2022-12-18T17:42:16;102063.88;;;-14.02;75.06
61010;BME280;46897;55.340;86.082;2022-12-18T17:44:46;102081.59;;;-13.94;75.15
61010;BME280;46897;55.340;86.082;2022-12-18T17:47:15;102081.56;;;-14.04;74.92
61010;BME280;46897;55.340;86.082;2022-12-18T17:49:44;102099.66;;;-14.01;74.68
61010;BME280;46897;55.340;86.082;2022-12-18T17:52:16;102086.78;;;-14.02;74.60
61010;BME280;46897;55.340;86.082;2022-12-18T17:54:45;102099.78;;;-13.99;74.54
61010;BME280;46897;55.340;86.082;2022-12-18T17:57:15;102010.00;;;-14.48;74.83
61010;BME280;46897;55.340;86.082;2022-12-18T17:59:44;102089.84;;;-13.96;74.59
61010;BME280;46897;55.340;86.082;2022-12-18T18:02:13;101778.88;;;-15.77;74.49
61010;BME280;46897;55.340;86.082;2022-12-18T18:04:43;102082.06;;;-14.08;74.71
61010;BME280;46897;55.340;86.082;2022-12-18T18:07:17;102099.41;;;-13.83;74.68
61010;BME280;46897;55.340;86.082;2022-12-18T18:09:48;102077.09;;;-14.07;74.94
61010;BME280;46897;55.340;86.082;2022-12-18T18:12:23;101910.41;;;-14.83;75.02
61010;BME280;46897;55.340;86.082;2022-12-18T18:15:13;102034.22;;;-14.22;74.51
61010;BME280;46897;55.340;86.082;2022-12-18T18:17:49;102068.44;;;-14.09;74.48
61010;BME280;46897;55.340;86.082;2022-12-18T18:20:26;102119.41;;;-13.78;74.48
61010;BME280;46897;55.340;86.082;2022-12-18T18:23:02;102041.47;;;-14.17;74.85
61010;BME280;46897;55.340;86.082;2022-12-18T18:25:35;102116.88;;;-13.78;74.47
61010;BME280;46897;55.340;86.082;2022-12-18T18:28:04;101930.13;;;-14.81;74.62
61010;BME280;46897;55.340;86.082;2022-12-18T18:30:35;101895.13;;;-15.04;74.77
61010;BME280;46897;55.340;86.082;2022-12-18T18:33:04;102094.44;;;-13.82;74.31
61010;BME280;46897;55.340;86.082;2022-12-18T18:35:41;102064.38;;;-14.07;74.50
61010;BME280;46897;55.340;86.082;2022-12-18T18:38:22;101972.22;;;-14.64;74.67
61010;BME280;46897;55.340;86.082;2022-12-18T18:40:57;101993.34;;;-14.45;74.58
61010;BME280;46897;55.340;86.082;2022-12-18T18:43:27;102091.03;;;-13.82;74.27
61010;BME280;46897;55.340;86.082;2022-12-18T18:45:56;101934.56;;;-14.78;74.20
61010;BME280;46897;55.340;86.082;2022-12-18T18:48:26;102083.50;;;-14.01;74.69
61010;BME280;46897;55.340;86.082;2022-12-18T18:51:02;102104.50;;;-13.83;74.85
61010;BME280;46897;55.340;86.082;2022-12-18T18:53:37;102101.97;;;-13.83;74.14
61010;BME280;46897;55.340;86.082;2022-12-18T18:56:08;101940.75;;;-14.95;74.82
61010;BME280;46897;55.340;86.082;2022-12-18T18:58:58;102018.44;;;-14.29;74.69
61010;BME280;46897;55.340;86.082;2022-12-18T19:01:27;101935.47;;;-14.78;74.45
61010;BME280;46897;55.340;86.082;2022-12-18T19:03:56;102106.41;;;-13.81;74.72
61010;BME280;46897;55.340;86.082;2022-12-18T19:06:27;102107.31;;;-13.80;74.61
61010;BME280;46897;55.340;86.082;2022-12-18T19:09:01;102119.91;;;-13.82;74.53
61010;BME280;46897;55.340;86.082;2022-12-18T19:11:31;102080.94;;;-14.12;74.49
61010;BME280;46897;55.340;86.082;2022-12-18T19:14:17;102102.56;;;-13.96;74.63
61010;BME280;46897;55.340;86.082;2022-12-18T19:16:47;101961.00;;;-14.76;74.66
61010;BME280;46897;55.340;86.082;2022-12-18T19:19:17;101939.38;;;-14.81;74.15
61010;BME280;46897;55.340;86.082;2022-12-18T19:21:47;102102.84;;;-13.83;74.50
61010;BME280;46897;55.340;86.082;2022-12-18T19:24:18;101950.09;;;-14.75;73.94
61010;BME280;46897;55.340;86.082;2022-12-18T19:26:48;102089.47;;;-14.11;73.97
61010;BME280;46897;55.340;86.082;2022-12-18T19:29:22;102031.50;;;-14.45;74.23
61010;BME280;46897;55.340;86.082;2022-12-18T19:31:51;102032.22;;;-14.66;74.59
61010;BME280;46897;55.340;86.082;2022-12-18T19:34:21;101982.22;;;-14.76;74.12
61010;BME280;46897;55.340;86.082;2022-12-18T19:36:50;102135.44;;;-13.89;74.32
61010;BME280;46897;55.340;86.082;2022-12-18T19:39:27;102140.53;;;-13.89;74.20
61010;BME280;46897;55.340;86.082;2022-12-18T19:41:56;102075.44;;;-14.27;74.25
61010;BME280;46897;55.340;86.082;2022-12-18T19:44:25;101946.06;;;-15.02;74.41
61010;BME280;46897;55.340;86.082;2022-12-18T19:46:55;102012.13;;;-14.73;74.41
61010;BME280;46897;55.340;86.082;2022-12-18T19:49:24;102146.63;;;-13.87;74.41
61010;BME280;46897;55.340;86.082;2022-12-18T19:51:53;102102.41;;;-14.08;74.47
61010;BME280;46897;55.340;86.082;2022-12-18T19:54:22;101981.72;;;-14.72;74.17
61010;BME280;46897;55.340;86.082;2022-12-18T19:56:54;102069.28;;;-14.39;74.22
61010;BME280;46897;55.340;86.082;2022-12-18T19:59:23;101955.13;;;-14.96;73.95
61010;BME280;46897;55.340;86.082;2022-12-18T20:01:52;101968.75;;;-14.85;74.15
61010;BME280;46897;55.340;86.082;2022-12-18T20:04:22;102011.88;;;-14.66;74.27
61010;BME280;46897;55.340;86.082;2022-12-18T20:06:52;102165.75;;;-13.82;74.29
61010;BME280;46897;55.340;86.082;2022-12-18T20:09:21;102155.28;;;-13.85;74.26
61010;BME280;46897;55.340;86.082;2022-12-18T20:11:53;101976.16;;;-15.07;74.07
61010;BME280;46897;55.340;86.082;2022-12-18T20:14:23;101912.84;;;-15.25;74.08
61010;BME280;46897;55.340;86.082;2022-12-18T20:16:52;102098.19;;;-14.28;74.31
61010;BME280;46897;55.340;86.082;2022-12-18T20:19:22;101988.69;;;-14.90;74.18
61010;BME280;46897;55.340;86.082;2022-12-18T20:21:52;102138.97;;;-13.97;74.28
61010;BME280;46897;55.340;86.082;2022-12-18T20:24:22;102134.63;;;-14.09;74.33
61010;BME280;46897;55.340;86.082;2022-12-18T20:26:52;102132.09;;;-14.09;74.02
61010;BME280;46897;55.340;86.082;2022-12-18T20:29:22;102005.75;;;-14.78;74.21
61010;BME280;46897;55.340;86.082;2022-12-18T20:31:51;102022.69;;;-14.69;74.29
61010;BME280;46897;55.340;86.082;2022-12-18T20:34:20;102172.59;;;-13.81;74.37
61010;BME280;46897;55.340;86.082;2022-12-18T20:36:51;102010.91;;;-14.87;74.32
61010;BME280;46897;55.340;86.082;2022-12-18T20:39:20;102180.25;;;-13.81;74.02
61010;BME280;46897;55.340;86.082;2022-12-18T20:41:50;101961.81;;;-15.07;73.93
61010;BME280;46897;55.340;86.082;2022-12-18T20:44:21;102066.44;;;-14.62;74.45
61010;BME280;46897;55.340;86.082;2022-12-18T20:46:52;101986.16;;;-15.19;73.92
61010;BME280;46897;55.340;86.082;2022-12-18T20:49:22;101972.53;;;-15.00;73.64
61010;BME280;46897;55.340;86.082;2022-12-18T20:51:53;102042.66;;;-14.73;74.21
61010;BME280;46897;55.340;86.082;2022-12-18T20:54:24;102177.09;;;-13.78;74.15
61010;BME280;46897;55.340;86.082;2022-12-18T20:56:54;102112.97;;;-14.14;74.31
61010;BME280;46897;55.340;86.082;2022-12-18T20:59:25;102086.84;;;-14.42;73.89
61010;BME280;46897;55.340;86.082;2022-12-18T21:01:54;102057.91;;;-14.53;74.08
61010;BME280;46897;55.340;86.082;2022-12-18T21:04:24;102035.72;;;-14.85;74.20
61010;BME280;46897;55.340;86.082;2022-12-18T21:06:53;102209.41;;;-13.77;74.09
61010;BME280;46897;55.340;86.082;2022-12-18T21:09:29;101947.06;;;-15.40;74.33
61010;BME280;46897;55.340;86.082;2022-12-18T21:12:04;102192.59;;;-13.86;73.88
61010;BME280;46897;55.340;86.082;2022-12-18T21:14:52;102003.91;;;-15.00;73.76
61010;BME280;46897;55.340;86.082;2022-12-18T21:17:22;101973.94;;;-15.23;73.96
61010;BME280;46897;55.340;86.082;2022-12-18T21:19:53;102155.22;;;-14.16;74.28
61010;BME280;46897;55.340;86.082;2022-12-18T21:22:23;102094.69;;;-14.59;73.76
61010;BME280;46897;55.340;86.082;2022-12-18T21:24:53;102144.97;;;-14.36;73.81
61010;BME280;46897;55.340;86.082;2022-12-18T21:27:22;102125.34;;;-14.48;74.18
61010;BME280;46897;55.340;86.082;2022-12-18T21:29:53;102035.28;;;-14.99;73.70
61010;BME280;46897;55.340;86.082;2022-12-18T21:32:22;102188.25;;;-14.26;74.23
61010;BME280;46897;55.340;86.082;2022-12-18T21:34:55;102079.63;;;-14.77;73.57
61010;BME280;46897;55.340;86.082;2022-12-18T21:37:25;102087.56;;;-14.93;73.88
61010;BME280;46897;55.340;86.082;2022-12-18T21:39:54;102040.19;;;-15.11;74.20
61010;BME280;46897;55.340;86.082;2022-12-18T21:42:23;102195.34;;;-14.03;73.95
61010;BME280;46897;55.340;86.082;2022-12-18T21:45:11;102079.78;;;-14.65;74.21
61010;BME280;46897;55.340;86.082;2022-12-18T21:47:41;102185.44;;;-14.00;74.27
61010;BME280;46897;55.340;86.082;2022-12-18T21:50:10;102185.56;;;-13.98;73.78
61010;BME280;46897;55.340;86.082;2022-12-18T21:52:40;102020.69;;;-14.92;73.81
61010;BME280;46897;55.340;86.082;2022-12-18T21:55:09;102177.16;;;-13.97;73.97
61010;BME280;46897;55.340;86.082;2022-12-18T21:57:38;102054.25;;;-14.96;74.08
61010;BME280;46897;55.340;86.082;2022-12-18T22:00:12;102023.25;;;-14.92;74.24
61010;BME280;46897;55.340;86.082;2022-12-18T22:02:47;102047.31;;;-14.78;74.32
61010;BME280;46897;55.340;86.082;2022-12-18T22:05:36;102186.97;;;-14.02;74.01
61010;BME280;46897;55.340;86.082;2022-12-18T22:08:05;102016.94;;;-15.16;74.26
61010;BME280;46897;55.340;86.082;2022-12-18T22:10:35;102192.41;;;-14.08;73.98
61010;BME280;46897;55.340;86.082;2022-12-18T22:13:05;102210.22;;;-14.08;74.22
61010;BME280;46897;55.340;86.082;2022-12-18T22:15:36;102071.56;;;-14.81;73.66
61010;BME280;46897;55.340;86.082;2022-12-18T22:18:05;102011.41;;;-15.20;74.01
61010;BME280;46897;55.340;86.082;2022-12-18T22:20:34;102063.88;;;-15.21;74.06
61010;BME280;46897;55.340;86.082;2022-12-18T22:23:03;102081.03;;;-15.18;73.69
61010;BME280;46897;55.340;86.082;2022-12-18T22:25:33;102153.81;;;-14.52;73.60
61010;BME280;46897;55.340;86.082;2022-12-18T22:28:06;102099.84;;;-15.16;73.71
61010;BME280;46897;55.340;86.082;2022-12-18T22:30:53;102108.84;;;-15.01;73.89
61010;BME280;46897;55.340;86.082;2022-12-18T22:33:26;102105.56;;;-15.00;73.66
61010;BME280;46897;55.340;86.082;2022-12-18T22:35:55;102236.94;;;-14.13;73.86
61010;BME280;46897;55.340;86.082;2022-12-18T22:38:24;102123.16;;;-14.93;73.87
61010;BME280;46897;55.340;86.082;2022-12-18T22:40:54;102098.75;;;-14.91;74.05
61010;BME280;46897;55.340;86.082;2022-12-18T22:43:23;102158.63;;;-14.55;73.93
61010;BME280;46897;55.340;86.082;2022-12-18T22:45:54;102002.81;;;-15.60;73.42
61010;BME280;46897;55.340;86.082;2022-12-18T22:48:23;102059.47;;;-15.13;73.68
61010;BME280;46897;55.340;86.082;2022-12-18T22:50:52;102260.22;;;-14.08;73.78
61010;BME280;46897;55.340;86.082;2022-12-18T22:53:25;102053.91;;;-15.09;73.84
61010;BME280;46897;55.340;86.082;2022-12-18T22:55:59;102043.03;;;-15.27;73.48
61010;BME280;46897;55.340;86.082;2022-12-18T22:58:29;102231.34;;;-14.09;73.92
61010;BME280;46897;55.340;86.082;2022-12-18T23:01:00;102089.44;;;-15.19;73.42
61010;BME280;46897;55.340;86.082;2022-12-18T23:03:30;102175.78;;;-14.62;73.84
61010;BME280;46897;55.340;86.082;2022-12-18T23:06:04;102238.72;;;-14.12;73.73
61010;BME280;46897;55.340;86.082;2022-12-18T23:08:34;102229.19;;;-14.33;73.88
61010;BME280;46897;55.340;86.082;2022-12-18T23:11:04;102101.66;;;-15.15;74.15
61010;BME280;46897;55.340;86.082;2022-12-18T23:13:34;102181.16;;;-14.49;73.68
61010;BME280;46897;55.340;86.082;2022-12-18T23:16:07;102087.44;;;-15.13;73.42
61010;BME280;46897;55.340;86.082;2022-12-18T23:18:36;102254.34;;;-14.17;73.23
61010;BME280;46897;55.340;86.082;2022-12-18T23:21:07;102045.41;;;-15.67;73.25
61010;BME280;46897;55.340;86.082;2022-12-18T23:23:39;102064.66;;;-15.60;73.00
61010;BME280;46897;55.340;86.082;2022-12-18T23:26:10;102248.59;;;-14.25;73.55
61010;BME280;46897;55.340;86.082;2022-12-18T23:28:40;102066.16;;;-15.43;73.38
61010;BME280;46897;55.340;86.082;2022-12-18T23:31:13;102261.78;;;-14.29;73.59
61010;BME280;46897;55.340;86.082;2022-12-18T23:33:44;101990.66;;;-15.83;73.40
61010;BME280;46897;55.340;86.082;2022-12-18T23:36:14;102098.13;;;-15.45;73.48
61010;BME280;46897;55.340;86.082;2022-12-18T23:38:47;102243.56;;;-14.63;73.65
61010;BME280;46897;55.340;86.082;2022-12-18T23:41:19;102205.28;;;-14.83;73.47
61010;BME280;46897;55.340;86.082;2022-12-18T23:43:48;102128.75;;;-15.25;73.29
61010;BME280;46897;55.340;86.082;2022-12-18T23:46:21;102111.31;;;-15.30;73.50
61010;BME280;46897;55.340;86.082;2022-12-18T23:48:51;102093.19;;;-15.44;73.68
61010;BME280;46897;55.340;86.082;2022-12-18T23:51:22;102266.06;;;-14.38;73.53
61010;BME280;46897;55.340;86.082;2022-12-18T23:53:52;102061.00;;;-15.53;73.21
61010;BME280;46897;55.340;86.082;2022-12-18T23:56:24;102147.44;;;-15.05;73.44
61010;BME280;46897;55.340;86.082;2022-12-18T23:58:53;102151.00;;;-15.22;73.03
